sensor_id;sensor_type;location;lat;lon;timestamp;P1;durP1;ratioP1;P2;durP2;ratioP2
70228;SDS011;57617;51.988;5.854;2023-08-08T00:00:33;9.15;;;3.90;;
70228;SDS011;57617;51.988;5.854;2023-08-08T00:02:58;9.10;;;4.40;;
70228;SDS011;57617;51.988;5.854;2023-08-08T00:05:24;7.63;;;4.10;;
70228;SDS011;57617;51.988;5.854;2023-08-08T00:07:49;9.27;;;4.20;;
70228;SDS011;57617;51.988;5.854;2023-08-08T00:10:15;7.63;;;4.20;;
70228;SDS011;57617;51.988;5.854;2023-08-08T00:12:40;14.57;;;4.78;;
70228;SDS011;57617;51.988;5.854;2023-08-08T00:15:05;11.18;;;4.63;;
70228;SDS011;57617;51.988;5.854;2023-08-08T00:17:31;12.02;;;4.53;;
70228;SDS011;57617;51.988;5.854;2023-08-08T00:19:56;9.90;;;4.63;;
70228;SDS011;57617;51.988;5.854;2023-08-08T00:22:22;8.95;;;4.03;;
70228;SDS011;57617;51.988;5.854;2023-08-08T00:24:47;8.38;;;4.22;;
70228;SDS011;57617;51.988;5.854;2023-08-08T00:27:12;11.23;;;5.07;;
70228;SDS011;57617;51.988;5.854;2023-08-08T00:29:37;12.50;;;4.60;;
70228;SDS011;57617;51.988;5.854;2023-08-08T00:32:03;7.63;;;4.43;;
70228;SDS011;57617;51.988;5.854;2023-08-08T00:34:28;11.88;;;4.82;;
70228;SDS011;57617;51.988;5.854;2023-08-08T00:36:54;9.57;;;4.72;;
70228;SDS011;57617;51.988;5.854;2023-08-08T00:39:19;9.75;;;4.72;;
70228;SDS011;57617;51.988;5.854;2023-08-08T00:41:44;11.10;;;4.93;;
70228;SDS011;57617;51.988;5.854;2023-08-08T00:44:10;10.57;;;4.72;;
70228;SDS011;57617;51.988;5.854;2023-08-08T00:46:35;13.23;;;5.13;;
70228;SDS011;57617;51.988;5.854;2023-08-08T00:49:00;10.48;;;4.50;;
70228;SDS011;57617;51.988;5.854;2023-08-08T00:51:26;9.98;;;4.25;;
70228;SDS011;57617;51.988;5.854;2023-08-08T00:53:51;12.85;;;4.53;;
70228;SDS011;57617;51.988;5.854;2023-08-08T00:56:16;10.13;;;4.50;;
70228;SDS011;57617;51.988;5.854;2023-08-08T00:58:42;10.52;;;4.25;;
70228;SDS011;57617;51.988;5.854;2023-08-08T01:01:10;12.60;;;4.70;;
70228;SDS011;57617;51.988;5.854;2023-08-08T01:03:36;9.45;;;4.40;;
70228;SDS011;57617;51.988;5.854;2023-08-08T01:06:13;10.15;;;4.50;;
70228;SDS011;57617;51.988;5.854;2023-08-08T01:08:46;18.67;;;4.60;;
70228;SDS011;57617;51.988;5.854;2023-08-08T01:11:18;12.45;;;4.43;;
70228;SDS011;57617;51.988;5.854;2023-08-08T01:13:43;11.13;;;4.40;;
70228;SDS011;57617;51.988;5.854;2023-08-08T01:16:09;11.77;;;4.28;;
70228;SDS011;57617;51.988;5.854;2023-08-08T01:18:36;10.93;;;3.95;;
70228;SDS011;57617;51.988;5.854;2023-08-08T01:21:03;12.55;;;4.60;;
70228;SDS011;57617;51.988;5.854;2023-08-08T01:26:13;11.52;;;4.30;;
70228;SDS011;57617;51.988;5.854;2023-08-08T01:28:42;11.25;;;4.25;;
70228;SDS011;57617;51.988;5.854;2023-08-08T01:31:08;12.68;;;4.38;;
70228;SDS011;57617;51.988;5.854;2023-08-08T01:33:34;8.95;;;4.78;;
70228;SDS011;57617;51.988;5.854;2023-08-08T01:36:00;9.70;;;4.53;;
70228;SDS011;57617;51.988;5.854;2023-08-08T01:38:34;10.60;;;4.72;;
70228;SDS011;57617;51.988;5.854;2023-08-08T01:41:04;10.30;;;4.85;;
70228;SDS011;57617;51.988;5.854;2023-08-08T01:43:32;12.80;;;4.45;;
70228;SDS011;57617;51.988;5.854;2023-08-08T01:45:59;12.85;;;4.30;;
70228;SDS011;57617;51.988;5.854;2023-08-08T01:48:25;15.20;;;4.95;;
70228;SDS011;57617;51.988;5.854;2023-08-08T01:50:50;14.02;;;4.50;;
70228;SDS011;57617;51.988;5.854;2023-08-08T01:53:16;12.75;;;4.90;;
70228;SDS011;57617;51.988;5.854;2023-08-08T01:55:42;10.55;;;4.70;;
70228;SDS011;57617;51.988;5.854;2023-08-08T01:58:07;11.88;;;4.03;;
70228;SDS011;57617;51.988;5.854;2023-08-08T02:00:32;15.90;;;4.47;;
70228;SDS011;57617;51.988;5.854;2023-08-08T02:02:58;10.52;;;4.55;;
70228;SDS011;57617;51.988;5.854;2023-08-08T02:05:23;13.75;;;4.32;;
70228;SDS011;57617;51.988;5.854;2023-08-08T02:07:48;15.15;;;4.50;;
70228;SDS011;57617;51.988;5.854;2023-08-08T02:10:14;12.48;;;4.50;;
70228;SDS011;57617;51.988;5.854;2023-08-08T02:12:39;12.35;;;4.10;;
70228;SDS011;57617;51.988;5.854;2023-08-08T02:15:05;9.68;;;4.40;;
70228;SDS011;57617;51.988;5.854;2023-08-08T02:17:30;13.98;;;4.05;;
70228;SDS011;57617;51.988;5.854;2023-08-08T02:19:56;11.10;;;4.60;;
70228;SDS011;57617;51.988;5.854;2023-08-08T02:22:22;8.50;;;4.05;;
70228;SDS011;57617;51.988;5.854;2023-08-08T02:24:47;9.45;;;3.90;;
70228;SDS011;57617;51.988;5.854;2023-08-08T02:27:12;8.85;;;3.88;;
70228;SDS011;57617;51.988;5.854;2023-08-08T02:29:38;10.48;;;4.82;;
70228;SDS011;57617;51.988;5.854;2023-08-08T02:32:03;12.00;;;4.18;;
70228;SDS011;57617;51.988;5.854;2023-08-08T02:34:29;9.25;;;4.07;;
70228;SDS011;57617;51.988;5.854;2023-08-08T02:36:54;9.73;;;4.20;;
70228;SDS011;57617;51.988;5.854;2023-08-08T02:39:19;12.85;;;4.40;;
70228;SDS011;57617;51.988;5.854;2023-08-08T02:41:45;12.75;;;4.57;;
70228;SDS011;57617;51.988;5.854;2023-08-08T02:44:10;15.10;;;4.60;;
70228;SDS011;57617;51.988;5.854;2023-08-08T02:46:35;15.10;;;4.47;;
70228;SDS011;57617;51.988;5.854;2023-08-08T02:49:03;15.68;;;4.03;;
70228;SDS011;57617;51.988;5.854;2023-08-08T02:51:29;14.35;;;4.43;;
70228;SDS011;57617;51.988;5.854;2023-08-08T02:53:54;10.73;;;4.07;;
70228;SDS011;57617;51.988;5.854;2023-08-08T02:56:19;12.93;;;3.90;;
70228;SDS011;57617;51.988;5.854;2023-08-08T02:58:45;8.90;;;4.20;;
70228;SDS011;57617;51.988;5.854;2023-08-08T03:01:10;12.82;;;4.75;;
70228;SDS011;57617;51.988;5.854;2023-08-08T03:03:38;8.18;;;4.10;;
70228;SDS011;57617;51.988;5.854;2023-08-08T03:06:03;11.27;;;4.50;;
70228;SDS011;57617;51.988;5.854;2023-08-08T03:08:30;9.60;;;4.50;;
70228;SDS011;57617;51.988;5.854;2023-08-08T03:10:55;12.93;;;4.45;;
70228;SDS011;57617;51.988;5.854;2023-08-08T03:13:20;13.07;;;4.45;;
70228;SDS011;57617;51.988;5.854;2023-08-08T03:15:47;13.55;;;4.72;;
70228;SDS011;57617;51.988;5.854;2023-08-08T03:18:12;14.70;;;4.70;;
70228;SDS011;57617;51.988;5.854;2023-08-08T03:20:38;16.40;;;5.20;;
70228;SDS011;57617;51.988;5.854;2023-08-08T03:23:03;11.77;;;4.85;;
70228;SDS011;57617;51.988;5.854;2023-08-08T03:25:29;15.43;;;5.65;;
70228;SDS011;57617;51.988;5.854;2023-08-08T03:27:54;14.93;;;6.22;;
70228;SDS011;57617;51.988;5.854;2023-08-08T03:30:19;17.70;;;6.15;;
70228;SDS011;57617;51.988;5.854;2023-08-08T03:32:45;21.65;;;6.10;;
70228;SDS011;57617;51.988;5.854;2023-08-08T03:35:10;21.15;;;6.65;;
70228;SDS011;57617;51.988;5.854;2023-08-08T03:37:35;21.33;;;6.57;;
70228;SDS011;57617;51.988;5.854;2023-08-08T03:40:01;15.52;;;6.28;;
70228;SDS011;57617;51.988;5.854;2023-08-08T03:42:26;19.73;;;5.95;;
70228;SDS011;57617;51.988;5.854;2023-08-08T03:44:51;18.23;;;6.60;;
70228;SDS011;57617;51.988;5.854;2023-08-08T03:47:16;19.83;;;6.25;;
70228;SDS011;57617;51.988;5.854;2023-08-08T03:49:42;16.05;;;6.50;;
70228;SDS011;57617;51.988;5.854;2023-08-08T03:52:07;15.30;;;6.90;;
70228;SDS011;57617;51.988;5.854;2023-08-08T03:54:32;28.00;;;6.68;;
70228;SDS011;57617;51.988;5.854;2023-08-08T03:56:58;15.07;;;5.70;;
70228;SDS011;57617;51.988;5.854;2023-08-08T03:59:23;19.80;;;6.68;;
70228;SDS011;57617;51.988;5.854;2023-08-08T04:01:48;15.55;;;6.50;;
70228;SDS011;57617;51.988;5.854;2023-08-08T04:04:14;19.38;;;6.53;;
70228;SDS011;57617;51.988;5.854;2023-08-08T04:06:39;17.30;;;6.47;;
70228;SDS011;57617;51.988;5.854;2023-08-08T04:09:05;18.98;;;6.75;;
70228;SDS011;57617;51.988;5.854;2023-08-08T04:11:30;16.45;;;6.32;;
70228;SDS011;57617;51.988;5.854;2023-08-08T04:13:55;17.67;;;6.72;;
70228;SDS011;57617;51.988;5.854;2023-08-08T04:16:21;20.52;;;6.90;;
70228;SDS011;57617;51.988;5.854;2023-08-08T04:18:46;13.90;;;6.75;;
70228;SDS011;57617;51.988;5.854;2023-08-08T04:21:11;20.27;;;6.88;;
70228;SDS011;57617;51.988;5.854;2023-08-08T04:23:36;16.10;;;6.68;;
70228;SDS011;57617;51.988;5.854;2023-08-08T04:26:02;19.30;;;6.43;;
70228;SDS011;57617;51.988;5.854;2023-08-08T04:28:27;20.55;;;6.80;;
70228;SDS011;57617;51.988;5.854;2023-08-08T04:30:53;14.82;;;6.88;;
70228;SDS011;57617;51.988;5.854;2023-08-08T04:33:18;15.07;;;6.45;;
70228;SDS011;57617;51.988;5.854;2023-08-08T04:35:43;18.70;;;6.95;;
70228;SDS011;57617;51.988;5.854;2023-08-08T04:38:09;18.90;;;6.68;;
70228;SDS011;57617;51.988;5.854;2023-08-08T04:40:34;20.25;;;7.03;;
70228;SDS011;57617;51.988;5.854;2023-08-08T04:43:00;21.23;;;7.13;;
70228;SDS011;57617;51.988;5.854;2023-08-08T04:45:25;17.08;;;6.60;;
70228;SDS011;57617;51.988;5.854;2023-08-08T04:47:52;14.90;;;6.55;;
70228;SDS011;57617;51.988;5.854;2023-08-08T04:50:17;24.30;;;6.85;;
70228;SDS011;57617;51.988;5.854;2023-08-08T04:52:42;19.10;;;6.53;;
70228;SDS011;57617;51.988;5.854;2023-08-08T04:55:08;16.70;;;6.35;;
70228;SDS011;57617;51.988;5.854;2023-08-08T04:57:33;19.30;;;6.80;;
70228;SDS011;57617;51.988;5.854;2023-08-08T04:59:59;17.30;;;6.50;;
70228;SDS011;57617;51.988;5.854;2023-08-08T05:02:29;19.33;;;7.15;;
70228;SDS011;57617;51.988;5.854;2023-08-08T05:04:55;20.15;;;7.00;;
70228;SDS011;57617;51.988;5.854;2023-08-08T05:07:20;25.05;;;7.25;;
70228;SDS011;57617;51.988;5.854;2023-08-08T05:09:45;17.80;;;7.05;;
70228;SDS011;57617;51.988;5.854;2023-08-08T05:12:10;18.73;;;7.25;;
70228;SDS011;57617;51.988;5.854;2023-08-08T05:14:36;23.60;;;7.75;;
70228;SDS011;57617;51.988;5.854;2023-08-08T05:17:02;17.35;;;8.00;;
70228;SDS011;57617;51.988;5.854;2023-08-08T05:19:28;21.85;;;7.72;;
70228;SDS011;57617;51.988;5.854;2023-08-08T05:21:53;20.00;;;7.50;;
70228;SDS011;57617;51.988;5.854;2023-08-08T05:24:18;19.70;;;7.93;;
70228;SDS011;57617;51.988;5.854;2023-08-08T05:26:44;18.23;;;7.63;;
70228;SDS011;57617;51.988;5.854;2023-08-08T05:29:09;22.40;;;7.82;;
70228;SDS011;57617;51.988;5.854;2023-08-08T05:31:34;22.95;;;8.20;;
70228;SDS011;57617;51.988;5.854;2023-08-08T05:34:00;23.95;;;8.15;;
70228;SDS011;57617;51.988;5.854;2023-08-08T05:36:25;20.52;;;8.02;;
70228;SDS011;57617;51.988;5.854;2023-08-08T05:38:50;18.60;;;7.40;;
70228;SDS011;57617;51.988;5.854;2023-08-08T05:41:16;20.77;;;7.47;;
70228;SDS011;57617;51.988;5.854;2023-08-08T05:43:41;25.33;;;7.53;;
70228;SDS011;57617;51.988;5.854;2023-08-08T05:46:07;25.55;;;7.80;;
70228;SDS011;57617;51.988;5.854;2023-08-08T05:48:33;25.95;;;7.72;;
70228;SDS011;57617;51.988;5.854;2023-08-08T05:50:58;16.67;;;7.30;;
70228;SDS011;57617;51.988;5.854;2023-08-08T05:53:24;20.45;;;7.22;;
70228;SDS011;57617;51.988;5.854;2023-08-08T05:55:50;19.02;;;7.28;;
70228;SDS011;57617;51.988;5.854;2023-08-08T05:58:15;19.90;;;7.63;;
70228;SDS011;57617;51.988;5.854;2023-08-08T06:00:41;19.70;;;7.13;;
70228;SDS011;57617;51.988;5.854;2023-08-08T06:03:07;21.42;;;7.25;;
70228;SDS011;57617;51.988;5.854;2023-08-08T06:05:32;19.77;;;6.95;;
70228;SDS011;57617;51.988;5.854;2023-08-08T06:07:58;16.55;;;7.00;;
70228;SDS011;57617;51.988;5.854;2023-08-08T06:10:23;20.15;;;7.20;;
70228;SDS011;57617;51.988;5.854;2023-08-08T06:12:50;18.98;;;7.00;;
70228;SDS011;57617;51.988;5.854;2023-08-08T06:15:15;19.08;;;7.05;;
70228;SDS011;57617;51.988;5.854;2023-08-08T06:17:41;21.58;;;6.53;;
70228;SDS011;57617;51.988;5.854;2023-08-08T06:20:06;18.40;;;6.47;;
70228;SDS011;57617;51.988;5.854;2023-08-08T06:22:33;16.73;;;6.30;;
70228;SDS011;57617;51.988;5.854;2023-08-08T06:24:59;15.27;;;6.05;;
70228;SDS011;57617;51.988;5.854;2023-08-08T06:27:24;16.65;;;5.90;;
70228;SDS011;57617;51.988;5.854;2023-08-08T06:29:49;16.58;;;5.75;;
70228;SDS011;57617;51.988;5.854;2023-08-08T06:32:15;17.45;;;5.50;;
70228;SDS011;57617;51.988;5.854;2023-08-08T06:34:40;18.05;;;6.20;;
70228;SDS011;57617;51.988;5.854;2023-08-08T06:37:05;19.42;;;5.80;;
70228;SDS011;57617;51.988;5.854;2023-08-08T06:39:31;10.43;;;5.03;;
70228;SDS011;57617;51.988;5.854;2023-08-08T06:41:56;14.65;;;5.13;;
70228;SDS011;57617;51.988;5.854;2023-08-08T06:44:22;13.55;;;5.47;;
70228;SDS011;57617;51.988;5.854;2023-08-08T06:46:47;14.15;;;5.10;;
70228;SDS011;57617;51.988;5.854;2023-08-08T06:49:12;9.85;;;4.85;;
70228;SDS011;57617;51.988;5.854;2023-08-08T06:51:38;13.05;;;4.45;;
70228;SDS011;57617;51.988;5.854;2023-08-08T06:54:03;11.35;;;4.72;;
70228;SDS011;57617;51.988;5.854;2023-08-08T06:56:28;12.07;;;4.03;;
70228;SDS011;57617;51.988;5.854;2023-08-08T06:58:54;12.68;;;3.90;;
70228;SDS011;57617;51.988;5.854;2023-08-08T07:01:19;11.02;;;3.90;;
70228;SDS011;57617;51.988;5.854;2023-08-08T07:03:45;13.73;;;3.10;;
70228;SDS011;57617;51.988;5.854;2023-08-08T07:06:11;8.38;;;2.80;;
70228;SDS011;57617;51.988;5.854;2023-08-08T07:08:37;7.38;;;2.78;;
70228;SDS011;57617;51.988;5.854;2023-08-08T07:11:04;5.90;;;2.20;;
70228;SDS011;57617;51.988;5.854;2023-08-08T07:13:30;9.95;;;2.10;;
70228;SDS011;57617;51.988;5.854;2023-08-08T07:15:56;5.35;;;1.80;;
70228;SDS011;57617;51.988;5.854;2023-08-08T07:18:21;5.53;;;1.48;;
70228;SDS011;57617;51.988;5.854;2023-08-08T07:20:46;7.78;;;1.67;;
70228;SDS011;57617;51.988;5.854;2023-08-08T07:23:12;6.85;;;1.85;;
70228;SDS011;57617;51.988;5.854;2023-08-08T07:25:37;5.05;;;1.42;;
70228;SDS011;57617;51.988;5.854;2023-08-08T07:28:02;5.60;;;1.80;;
70228;SDS011;57617;51.988;5.854;2023-08-08T07:30:28;4.85;;;1.60;;
70228;SDS011;57617;51.988;5.854;2023-08-08T07:32:53;4.63;;;1.50;;
70228;SDS011;57617;51.988;5.854;2023-08-08T07:35:18;3.35;;;1.45;;
70228;SDS011;57617;51.988;5.854;2023-08-08T07:37:44;5.38;;;1.63;;
70228;SDS011;57617;51.988;5.854;2023-08-08T07:40:16;8.05;;;1.58;;
70228;SDS011;57617;51.988;5.854;2023-08-08T07:42:45;3.35;;;1.45;;
70228;SDS011;57617;51.988;5.854;2023-08-08T07:45:12;3.90;;;1.33;;
70228;SDS011;57617;51.988;5.854;2023-08-08T07:47:37;3.47;;;1.52;;
70228;SDS011;57617;51.988;5.854;2023-08-08T07:50:03;4.18;;;1.40;;
70228;SDS011;57617;51.988;5.854;2023-08-08T07:52:28;2.55;;;1.10;;
70228;SDS011;57617;51.988;5.854;2023-08-08T07:54:54;7.47;;;1.35;;
70228;SDS011;57617;51.988;5.854;2023-08-08T07:57:19;2.58;;;1.13;;
70228;SDS011;57617;51.988;5.854;2023-08-08T07:59:44;5.18;;;1.30;;
70228;SDS011;57617;51.988;5.854;2023-08-08T08:02:09;6.35;;;1.20;;
70228;SDS011;57617;51.988;5.854;2023-08-08T08:04:35;4.53;;;1.10;;
70228;SDS011;57617;51.988;5.854;2023-08-08T08:07:00;5.78;;;1.60;;
70228;SDS011;57617;51.988;5.854;2023-08-08T08:09:26;5.28;;;1.10;;
70228;SDS011;57617;51.988;5.854;2023-08-08T08:11:51;4.00;;;0.90;;
70228;SDS011;57617;51.988;5.854;2023-08-08T08:14:16;2.95;;;1.10;;
70228;SDS011;57617;51.988;5.854;2023-08-08T08:16:42;2.88;;;0.80;;
70228;SDS011;57617;51.988;5.854;2023-08-08T08:19:07;2.30;;;0.90;;
70228;SDS011;57617;51.988;5.854;2023-08-08T08:21:32;10.15;;;0.90;;
70228;SDS011;57617;51.988;5.854;2023-08-08T08:23:58;8.13;;;1.20;;
70228;SDS011;57617;51.988;5.854;2023-08-08T08:26:23;33.28;;;2.05;;
70228;SDS011;57617;51.988;5.854;2023-08-08T08:28:48;3.92;;;1.00;;
70228;SDS011;57617;51.988;5.854;2023-08-08T08:31:14;7.38;;;0.85;;
70228;SDS011;57617;51.988;5.854;2023-08-08T08:33:39;2.33;;;0.85;;
70228;SDS011;57617;51.988;5.854;2023-08-08T08:36:04;3.78;;;0.98;;
70228;SDS011;57617;51.988;5.854;2023-08-08T08:38:30;4.82;;;0.98;;
70228;SDS011;57617;51.988;5.854;2023-08-08T08:40:56;3.38;;;1.10;;
70228;SDS011;57617;51.988;5.854;2023-08-08T08:43:22;3.08;;;1.00;;
70228;SDS011;57617;51.988;5.854;2023-08-08T08:45:50;7.00;;;1.20;;
70228;SDS011;57617;51.988;5.854;2023-08-08T08:48:17;3.92;;;0.90;;
70228;SDS011;57617;51.988;5.854;2023-08-08T08:50:44;4.03;;;0.70;;
70228;SDS011;57617;51.988;5.854;2023-08-08T08:53:12;4.28;;;0.90;;
70228;SDS011;57617;51.988;5.854;2023-08-08T08:55:38;3.67;;;0.95;;
70228;SDS011;57617;51.988;5.854;2023-08-08T08:58:04;4.88;;;0.80;;
70228;SDS011;57617;51.988;5.854;2023-08-08T09:00:30;1.75;;;0.80;;
70228;SDS011;57617;51.988;5.854;2023-08-08T09:02:56;2.15;;;0.80;;
70228;SDS011;57617;51.988;5.854;2023-08-08T09:05:22;2.17;;;0.80;;
70228;SDS011;57617;51.988;5.854;2023-08-08T09:07:50;2.40;;;0.70;;
70228;SDS011;57617;51.988;5.854;2023-08-08T09:10:16;3.13;;;0.80;;
70228;SDS011;57617;51.988;5.854;2023-08-08T09:12:42;3.17;;;0.80;;
70228;SDS011;57617;51.988;5.854;2023-08-08T09:15:08;2.13;;;0.70;;
70228;SDS011;57617;51.988;5.854;2023-08-08T09:17:35;2.45;;;0.70;;
70228;SDS011;57617;51.988;5.854;2023-08-08T09:20:01;1.77;;;0.70;;
70228;SDS011;57617;51.988;5.854;2023-08-08T09:22:26;2.83;;;0.80;;
70228;SDS011;57617;51.988;5.854;2023-08-08T09:24:53;2.70;;;0.80;;
70228;SDS011;57617;51.988;5.854;2023-08-08T09:27:20;2.60;;;0.80;;
70228;SDS011;57617;51.988;5.854;2023-08-08T09:29:46;2.22;;;0.57;;
70228;SDS011;57617;51.988;5.854;2023-08-08T09:32:11;1.00;;;0.70;;
70228;SDS011;57617;51.988;5.854;2023-08-08T09:34:40;0.80;;;0.60;;
70228;SDS011;57617;51.988;5.854;2023-08-08T09:37:07;2.95;;;0.60;;
70228;SDS011;57617;51.988;5.854;2023-08-08T09:39:32;1.27;;;0.60;;
70228;SDS011;57617;51.988;5.854;2023-08-08T09:41:58;1.55;;;0.70;;
70228;SDS011;57617;51.988;5.854;2023-08-08T09:44:24;1.55;;;0.73;;
70228;SDS011;57617;51.988;5.854;2023-08-08T09:46:52;2.78;;;1.20;;
70228;SDS011;57617;51.988;5.854;2023-08-08T09:49:18;2.17;;;0.70;;
70228;SDS011;57617;51.988;5.854;2023-08-08T09:51:44;1.73;;;0.90;;
70228;SDS011;57617;51.988;5.854;2023-08-08T09:54:10;2.17;;;0.63;;
70228;SDS011;57617;51.988;5.854;2023-08-08T09:56:36;1.92;;;0.77;;
70228;SDS011;57617;51.988;5.854;2023-08-08T09:59:04;3.45;;;1.20;;
70228;SDS011;57617;51.988;5.854;2023-08-08T10:01:31;6.47;;;0.95;;
70228;SDS011;57617;51.988;5.854;2023-08-08T10:03:56;4.15;;;1.30;;
70228;SDS011;57617;51.988;5.854;2023-08-08T10:06:22;4.50;;;0.90;;
70228;SDS011;57617;51.988;5.854;2023-08-08T10:08:48;0.80;;;0.60;;
70228;SDS011;57617;51.988;5.854;2023-08-08T10:11:14;2.97;;;0.70;;
70228;SDS011;57617;51.988;5.854;2023-08-08T10:13:48;5.68;;;0.90;;
70228;SDS011;57617;51.988;5.854;2023-08-08T10:16:15;3.35;;;0.90;;
70228;SDS011;57617;51.988;5.854;2023-08-08T10:18:42;2.05;;;0.77;;
70228;SDS011;57617;51.988;5.854;2023-08-08T10:21:07;1.98;;;1.08;;
70228;SDS011;57617;51.988;5.854;2023-08-08T10:23:38;1.35;;;0.73;;
70228;SDS011;57617;51.988;5.854;2023-08-08T10:26:04;3.28;;;0.95;;
70228;SDS011;57617;51.988;5.854;2023-08-08T10:28:31;1.52;;;0.70;;
70228;SDS011;57617;51.988;5.854;2023-08-08T10:30:59;2.63;;;0.73;;
70228;SDS011;57617;51.988;5.854;2023-08-08T10:33:28;3.28;;;0.82;;
70228;SDS011;57617;51.988;5.854;2023-08-08T10:36:04;2.17;;;1.00;;
70228;SDS011;57617;51.988;5.854;2023-08-08T10:41:17;6.10;;;0.90;;
70228;SDS011;57617;51.988;5.854;2023-08-08T10:46:30;2.15;;;0.70;;
70228;SDS011;57617;51.988;5.854;2023-08-08T10:48:58;1.65;;;0.80;;
70228;SDS011;57617;51.988;5.854;2023-08-08T10:54:09;1.80;;;0.90;;
70228;SDS011;57617;51.988;5.854;2023-08-08T10:56:41;2.60;;;0.90;;
70228;SDS011;57617;51.988;5.854;2023-08-08T10:59:14;1.58;;;0.80;;
70228;SDS011;57617;51.988;5.854;2023-08-08T11:01:41;4.13;;;1.42;;
70228;SDS011;57617;51.988;5.854;2023-08-08T11:04:10;2.97;;;1.15;;
70228;SDS011;57617;51.988;5.854;2023-08-08T11:06:36;2.90;;;0.95;;
70228;SDS011;57617;51.988;5.854;2023-08-08T11:09:01;2.83;;;1.02;;
70228;SDS011;57617;51.988;5.854;2023-08-08T11:11:35;4.32;;;1.02;;
70228;SDS011;57617;51.988;5.854;2023-08-08T11:16:36;2.67;;;1.20;;
70228;SDS011;57617;51.988;5.854;2023-08-08T11:19:02;3.10;;;1.17;;
70228;SDS011;57617;51.988;5.854;2023-08-08T11:21:27;7.50;;;1.10;;
70228;SDS011;57617;51.988;5.854;2023-08-08T11:23:53;2.90;;;1.10;;
70228;SDS011;57617;51.988;5.854;2023-08-08T11:26:18;5.05;;;1.23;;
70228;SDS011;57617;51.988;5.854;2023-08-08T11:28:50;1.15;;;0.90;;
70228;SDS011;57617;51.988;5.854;2023-08-08T11:31:17;2.15;;;1.10;;
70228;SDS011;57617;51.988;5.854;2023-08-08T11:33:46;1.60;;;0.90;;
70228;SDS011;57617;51.988;5.854;2023-08-08T11:36:13;2.58;;;1.50;;
70228;SDS011;57617;51.988;5.854;2023-08-08T11:38:39;2.83;;;0.93;;
70228;SDS011;57617;51.988;5.854;2023-08-08T11:41:05;4.30;;;1.00;;
70228;SDS011;57617;51.988;5.854;2023-08-08T11:43:31;2.95;;;1.30;;
70228;SDS011;57617;51.988;5.854;2023-08-08T11:45:59;2.67;;;1.10;;
70228;SDS011;57617;51.988;5.854;2023-08-08T11:48:25;5.85;;;1.60;;
70228;SDS011;57617;51.988;5.854;2023-08-08T11:50:52;2.22;;;1.00;;
70228;SDS011;57617;51.988;5.854;2023-08-08T11:53:19;1.75;;;1.20;;
70228;SDS011;57617;51.988;5.854;2023-08-08T11:55:44;2.53;;;1.10;;
70228;SDS011;57617;51.988;5.854;2023-08-08T11:58:14;1.98;;;0.90;;
70228;SDS011;57617;51.988;5.854;2023-08-08T12:00:39;2.00;;;1.40;;
70228;SDS011;57617;51.988;5.854;2023-08-08T12:03:07;4.47;;;1.33;;
70228;SDS011;57617;51.988;5.854;2023-08-08T12:05:37;2.53;;;1.25;;
70228;SDS011;57617;51.988;5.854;2023-08-08T12:08:06;1.98;;;1.30;;
70228;SDS011;57617;51.988;5.854;2023-08-08T12:10:31;4.43;;;1.30;;
70228;SDS011;57617;51.988;5.854;2023-08-08T12:12:57;1.35;;;1.20;;
70228;SDS011;57617;51.988;5.854;2023-08-08T12:15:29;3.50;;;1.52;;
70228;SDS011;57617;51.988;5.854;2023-08-08T12:17:55;4.13;;;1.40;;
70228;SDS011;57617;51.988;5.854;2023-08-08T12:20:22;2.53;;;1.17;;
70228;SDS011;57617;51.988;5.854;2023-08-08T12:22:47;5.85;;;1.67;;
70228;SDS011;57617;51.988;5.854;2023-08-08T12:25:13;1.98;;;1.45;;
70228;SDS011;57617;51.988;5.854;2023-08-08T12:27:38;2.45;;;1.65;;
70228;SDS011;57617;51.988;5.854;2023-08-08T12:30:04;2.40;;;1.50;;
70228;SDS011;57617;51.988;5.854;2023-08-08T12:32:31;4.15;;;1.52;;
70228;SDS011;57617;51.988;5.854;2023-08-08T12:34:58;1.55;;;1.17;;
70228;SDS011;57617;51.988;5.854;2023-08-08T12:37:23;2.40;;;1.30;;
70228;SDS011;57617;51.988;5.854;2023-08-08T12:39:49;1.92;;;1.20;;
70228;SDS011;57617;51.988;5.854;2023-08-08T12:42:15;3.10;;;1.55;;
70228;SDS011;57617;51.988;5.854;2023-08-08T12:44:40;2.92;;;1.40;;
70228;SDS011;57617;51.988;5.854;2023-08-08T12:47:06;2.55;;;1.40;;
70228;SDS011;57617;51.988;5.854;2023-08-08T12:49:31;3.58;;;1.50;;
70228;SDS011;57617;51.988;5.854;2023-08-08T12:51:56;2.67;;;1.60;;
70228;SDS011;57617;51.988;5.854;2023-08-08T12:54:22;3.90;;;1.40;;
70228;SDS011;57617;51.988;5.854;2023-08-08T12:56:47;2.80;;;1.40;;
70228;SDS011;57617;51.988;5.854;2023-08-08T12:59:13;3.40;;;1.50;;
70228;SDS011;57617;51.988;5.854;2023-08-08T13:01:38;3.33;;;1.30;;
70228;SDS011;57617;51.988;5.854;2023-08-08T13:04:04;2.60;;;1.30;;
70228;SDS011;57617;51.988;5.854;2023-08-08T13:06:29;2.60;;;1.25;;
70228;SDS011;57617;51.988;5.854;2023-08-08T13:08:55;2.38;;;1.48;;
70228;SDS011;57617;51.988;5.854;2023-08-08T13:11:21;6.18;;;1.73;;
70228;SDS011;57617;51.988;5.854;2023-08-08T13:13:46;1.45;;;1.20;;
70228;SDS011;57617;51.988;5.854;2023-08-08T13:16:12;4.75;;;1.55;;
70228;SDS011;57617;51.988;5.854;2023-08-08T13:18:37;2.63;;;1.30;;
70228;SDS011;57617;51.988;5.854;2023-08-08T13:21:02;2.70;;;1.65;;
70228;SDS011;57617;51.988;5.854;2023-08-08T13:23:28;2.55;;;1.40;;
70228;SDS011;57617;51.988;5.854;2023-08-08T13:25:53;1.70;;;1.30;;
70228;SDS011;57617;51.988;5.854;2023-08-08T13:28:19;3.42;;;1.52;;
70228;SDS011;57617;51.988;5.854;2023-08-08T13:30:44;3.45;;;1.60;;
70228;SDS011;57617;51.988;5.854;2023-08-08T13:33:09;2.33;;;1.38;;
70228;SDS011;57617;51.988;5.854;2023-08-08T13:35:35;2.58;;;1.40;;
70228;SDS011;57617;51.988;5.854;2023-08-08T13:38:00;4.10;;;1.50;;
70228;SDS011;57617;51.988;5.854;2023-08-08T13:40:26;2.75;;;1.65;;
70228;SDS011;57617;51.988;5.854;2023-08-08T13:42:51;4.25;;;1.50;;
70228;SDS011;57617;51.988;5.854;2023-08-08T13:45:17;3.10;;;1.27;;
70228;SDS011;57617;51.988;5.854;2023-08-08T13:47:44;2.83;;;1.25;;
70228;SDS011;57617;51.988;5.854;2023-08-08T13:50:09;1.90;;;1.30;;
70228;SDS011;57617;51.988;5.854;2023-08-08T13:52:34;1.60;;;1.15;;
70228;SDS011;57617;51.988;5.854;2023-08-08T13:55:00;2.08;;;1.50;;
70228;SDS011;57617;51.988;5.854;2023-08-08T13:57:25;3.55;;;1.60;;
70228;SDS011;57617;51.988;5.854;2023-08-08T13:59:50;3.28;;;1.63;;
70228;SDS011;57617;51.988;5.854;2023-08-08T14:02:16;3.75;;;1.52;;
70228;SDS011;57617;51.988;5.854;2023-08-08T14:04:44;3.63;;;1.90;;
70228;SDS011;57617;51.988;5.854;2023-08-08T14:07:10;3.80;;;1.48;;
70228;SDS011;57617;51.988;5.854;2023-08-08T14:09:36;3.80;;;1.33;;
70228;SDS011;57617;51.988;5.854;2023-08-08T14:12:01;4.20;;;2.22;;
70228;SDS011;57617;51.988;5.854;2023-08-08T14:14:27;5.55;;;1.80;;
70228;SDS011;57617;51.988;5.854;2023-08-08T14:16:52;4.75;;;1.35;;
70228;SDS011;57617;51.988;5.854;2023-08-08T14:19:18;1.92;;;1.25;;
70228;SDS011;57617;51.988;5.854;2023-08-08T14:21:44;4.18;;;1.25;;
70228;SDS011;57617;51.988;5.854;2023-08-08T14:24:09;2.05;;;1.20;;
70228;SDS011;57617;51.988;5.854;2023-08-08T14:26:35;1.45;;;0.90;;
70228;SDS011;57617;51.988;5.854;2023-08-08T14:29:00;3.72;;;1.33;;
70228;SDS011;57617;51.988;5.854;2023-08-08T14:31:25;5.68;;;1.42;;
70228;SDS011;57617;51.988;5.854;2023-08-08T14:33:51;3.13;;;0.98;;
70228;SDS011;57617;51.988;5.854;2023-08-08T14:36:16;1.75;;;0.98;;
70228;SDS011;57617;51.988;5.854;2023-08-08T14:38:41;2.47;;;1.10;;
70228;SDS011;57617;51.988;5.854;2023-08-08T14:41:07;1.90;;;0.98;;
70228;SDS011;57617;51.988;5.854;2023-08-08T14:43:32;1.83;;;0.93;;
70228;SDS011;57617;51.988;5.854;2023-08-08T14:45:57;2.10;;;1.00;;
70228;SDS011;57617;51.988;5.854;2023-08-08T14:48:23;3.05;;;1.25;;